Date,TemperatureHighF,TemperatureAvgF,TemperatureLowF,DewpointHighF,DewpointAvgF,DewpointLowF,HumidityHigh,HumidityAvg,HumidityLow,PressureMaxIn,PressureMinIn,WindSpeedMaxMPH,WindSpeedAvgMPH,GustSpeedMaxMPH,PrecipitationSumIn
2013-1-2,69.0,60.2,41.0,40.0,35.6,29.0,85,43,24,30.06,30.02,5,1,11,0.00
2013-1-3,71.0,44.7,35.0,45.0,37.7,32.0,90,80,26,30.16,30.05,2,0,6,0.00
2013-1-4,66.0,48.0,36.0,44.0,36.7,23.0,89,70,19,30.27,30.16,4,0,10,0.00
2013-1-5,65.0,46.5,34.0,48.0,36.5,29.0,90,72,29,30.28,30.17,3,0,7,3.12
2013-1-6,58.0,51.8,45.0,48.0,45.4,41.0,90,79,62,30.20,30.03,8,2,18,0.00
2013-1-7,67.0,56.8,43.0,49.0,43.0,35.0,91,63,35,30.09,29.97,6,1,12,0.00
2013-1-8,65.0,48.4,38.0,56.0,43.4,35.0,90,84,62,30.11,30.01,4,1,10,3.18
2013-1-9,67.0,52.4,42.0,56.0,48.0,39.0,91,86,67,30.12,30.01,3,0,9,3.18
2013-1-10,59.0,53.1,46.0,51.0,37.4,30.0,87,56,42,30.10,29.91,13,6,24,0.00
2013-1-11,56.0,50.6,45.0,35.0,28.6,24.0,55,43,33,30.18,30.05,11,4,17,0.00
2013-1-12,51.0,46.8,39.0,31.0,28.7,27.0,70,50,41,30.16,30.06,2,0,6,0.00
2013-1-15,62.0,44.8,31.0,38.0,29.1,22.0,84,60,24,30.44,30.31,5,1,12,0.00
2013-1-31,79.0,68.2,52.0,47.0,46.3,44.0,81,51,30,30.15,30.09,1,0,5,0.00
2013-2-1,71.0,65.2,54.0,52.0,50.1,47.0,85,60,43,30.15,30.09,6,1,11,0.00
2013-2-2,71.0,66.7,54.0,55.0,51.9,49.0,88,60,50,30.17,30.08,4,1,12,0.00
2013-2-3,75.0,64.1,51.0,56.0,52.4,48.0,89,68,42,30.09,30.00,5,1,12,0.00
2013-2-4,63.0,57.7,51.0,56.0,53.2,48.0,90,85,76,30.09,29.97,5,1,10,4.00
2013-2-5,59.0,56.3,54.0,52.0,51.3,50.0,87,83,79,30.09,29.98,2,0,6,0.00
2013-2-6,57.0,56.4,55.0,51.0,50.7,50.0,82,80,79,30.06,30.05,1,0,5,0.00
2013-3-1,59.0,46.9,45.0,43.0,40.5,39.0,84,79,52,30.28,30.24,0,0,2,0.00
2013-3-2,74.0,61.8,55.0,47.0,40.6,34.0,74,49,24,30.11,30.06,2,0,6,0.00
2013-3-3,65.0,59.0,54.0,56.0,53.4,47.0,88,82,72,30.10,29.98,5,1,10,0.00
2013-3-4,66.0,57.6,51.0,54.0,51.5,48.0,89,80,65,30.09,30.01,6,2,12,0.00
2013-3-5,61.0,56.5,53.0,53.0,50.5,49.0,88,79,75,30.12,30.03,6,2,13,0.00
2013-3-7,61.0,56.7,54.0,54.0,51.2,48.0,88,82,71,30.01,29.85,6,2,18,0.02
2013-3-8,58.0,54.3,48.0,50.0,46.9,44.0,90,76,61,29.99,29.83,7,3,14,0.03
2013-3-9,64.0,55.6,49.0,50.0,46.7,42.0,88,74,47,30.21,30.11,6,2,12,0.00
2013-3-10,75.0,65.4,49.0,49.0,46.2,43.0,88,55,33,30.23,30.14,7,2,13,0.00
2013-3-11,69.0,54.6,45.0,55.0,47.5,42.0,90,78,54,30.17,30.08,6,0,11,0.00
2013-3-12,74.0,58.3,44.0,58.0,50.3,41.0,91,77,44,30.08,29.98,3,1,9,5.08
2013-3-13,67.0,64.6,64.0,57.0,56.1,56.0,75,74,70,30.10,30.08,3,1,10,0.00
2013-3-16,63.0,60.4,55.0,55.0,53.4,50.0,84,78,72,29.98,29.89,6,3,13,0.00
2013-6-21,73.0,72.2,71.0,63.0,62.5,62.0,74,72,70,29.88,29.83,7,7,13,0.00
2013-6-22,69.0,68.7,68.0,61.0,60.1,60.0,76,75,74,29.90,29.89,5,4,11,0.00
2013-6-28,77.0,67.8,64.0,68.0,62.6,60.0,88,84,72,29.98,29.94,5,1,9,0.00
2013-6-29,88.0,75.2,65.0,69.0,65.8,61.0,87,73,53,29.87,29.72,7,2,14,0.00
2013-6-30,81.0,72.5,67.0,70.0,66.2,63.0,88,81,67,29.80,29.69,11,2,20,0.00
2013-7-1,85.0,71.2,67.0,70.0,65.3,63.0,87,82,60,29.89,29.79,8,2,13,0.00
2013-7-2,76.0,69.7,67.0,68.0,64.5,62.0,88,84,74,30.00,29.86,8,2,16,0.00
2013-7-3,79.0,69.2,65.0,67.0,63.4,61.0,87,82,66,29.92,29.79,6,2,10,0.00
2013-7-4,77.0,68.7,64.0,66.0,62.3,60.0,87,81,67,29.83,29.74,6,2,12,0.00
2013-7-5,75.0,68.6,65.0,66.0,62.8,60.0,86,82,72,29.83,29.76,9,3,17,0.00
2013-7-6,73.0,68.2,66.0,65.0,62.8,62.0,86,83,76,29.82,29.74,6,2,11,0.00
2013-7-17,84.0,71.6,59.0,66.0,59.5,55.0,88,67,45,30.00,29.93,9,2,15,0.00
2013-7-18,77.0,66.4,59.0,64.0,59.7,55.0,88,80,64,29.98,29.88,8,2,15,0.00
2013-7-19,74.0,66.3,61.0,65.0,61.0,57.0,88,83,74,29.90,29.84,7,2,13,0.00
2013-7-20,70.0,66.1,66.0,64.0,60.0,-99.9,86,84,81,29.88,29.79,5,1,10,0.00
2013-7-21,69.0,68.0,67.0,64.0,63.0,62.0,85,84,82,29.91,29.88,5,2,9,0.00
2013-7-22,78.0,70.6,65.0,67.0,63.9,61.0,87,79,66,29.96,29.90,8,2,14,0.00
2013-7-23,81.0,71.0,64.0,67.0,63.5,60.0,88,78,61,30.01,29.91,7,3,14,0.00
2013-7-24,80.0,70.9,65.0,67.0,63.1,60.0,87,77,62,29.97,29.88,7,3,13,0.00
2013-7-25,66.0,64.7,64.0,62.0,60.4,60.0,87,86,85,29.97,29.93,3,0,5,0.00
2013-7-26,82.0,70.6,65.0,68.0,63.3,61.0,88,78,61,30.07,29.95,9,2,12,0.00
2013-7-27,69.0,67.6,66.0,63.0,61.8,60.0,83,81,81,30.00,29.99,4,1,6,0.00
2013-7-28,72.0,66.2,63.0,64.0,60.6,58.0,88,82,73,29.92,29.87,8,2,15,0.00
2013-7-29,75.0,67.6,63.0,62.0,59.6,58.0,85,76,64,30.01,29.91,8,2,14,0.00
2013-7-30,77.0,69.2,62.0,63.0,60.2,58.0,88,74,59,30.11,30.01,10,3,14,0.00
2013-7-31,72.0,66.9,61.0,62.0,59.5,57.0,87,78,67,30.09,29.98,10,3,16,0.00
2013-8-1,74.0,68.5,63.0,62.0,60.4,58.0,85,75,67,30.02,29.89,8,2,14,0.00
2013-8-2,75.0,65.9,63.0,63.0,60.1,58.0,87,82,65,29.96,29.89,6,1,12,0.00
2013-8-3,75.0,69.8,63.0,64.0,61.8,58.0,86,76,68,29.99,29.91,9,4,14,0.00
2013-8-4,78.0,68.8,63.0,65.0,61.5,59.0,87,78,61,30.01,29.91,8,3,14,0.00
2013-8-5,79.0,68.4,62.0,65.0,60.7,58.0,88,77,60,30.00,29.90,7,2,13,0.00
2013-8-6,75.0,67.5,62.0,62.0,59.8,58.0,87,77,62,30.03,29.95,8,3,13,0.00
2013-8-7,71.0,63.9,60.0,62.0,58.7,56.0,88,84,72,30.05,30.01,4,1,11,0.00
2013-8-8,73.0,67.5,62.0,63.0,60.5,57.0,89,79,68,29.99,29.91,9,3,15,0.00
2013-8-9,72.0,65.4,59.0,62.0,59.2,55.0,89,81,69,29.96,29.90,9,3,15,0.00
2013-8-10,72.0,66.4,60.0,62.0,59.5,56.0,88,79,68,30.03,29.94,9,2,14,0.00
2013-8-11,75.0,69.6,62.0,63.0,60.8,58.0,87,74,61,29.98,29.90,8,3,14,0.00
2013-8-12,73.0,65.5,60.0,64.0,59.8,56.0,88,83,72,29.97,29.89,8,2,14,0.00
2013-8-13,79.0,67.6,62.0,67.0,59.2,-99.9,88,79,62,29.97,29.85,5,2,12,0.00
2013-8-14,72.0,65.7,63.0,65.0,59.5,-99.9,88,83,77,29.92,29.82,8,3,16,0.00
2013-8-15,74.0,61.8,65.0,66.0,44.5,-99.9,87,77,73,29.93,29.86,9,3,13,0.00
2013-8-16,82.0,67.9,64.0,67.0,60.1,-99.9,89,81,57,29.95,29.88,7,1,11,0.00
2013-8-17,83.0,70.5,63.0,66.0,60.7,-99.9,88,75,54,29.94,29.80,7,2,15,0.00
2013-8-18,74.0,67.6,64.0,66.0,62.2,60.0,88,83,75,29.89,29.82,9,2,16,0.00
2013-8-19,74.0,65.4,64.0,66.0,53.9,-99.9,87,81,71,29.95,29.84,9,2,14,0.00
2013-8-20,82.0,68.5,64.0,66.0,61.7,60.0,88,81,57,29.89,29.84,6,2,11,0.00
2013-10-1,71.0,70.0,69.0,64.0,63.2,63.0,81,79,76,29.86,29.85,5,4,10,0.02
2013-11-3,67.0,62.9,59.0,58.0,56.1,54.0,85,79,70,29.91,29.82,7,1,13,0.00
2013-11-4,67.0,61.6,55.0,58.0,54.1,51.0,87,77,69,29.92,29.80,7,2,14,0.00
2013-11-5,77.0,65.0,51.0,55.0,43.5,35.0,89,51,22,30.12,30.02,5,1,10,0.12
2013-11-6,79.0,61.4,48.0,43.0,39.2,32.0,79,49,18,30.18,30.09,5,1,11,0.12
2013-11-7,73.0,61.6,53.0,47.0,44.3,40.0,78,56,32,30.09,29.97,2,0,6,0.00
2013-11-8,68.0,55.7,47.0,59.0,50.0,43.0,88,82,58,30.02,29.91,3,0,5,0.00
2013-11-9,73.0,63.7,53.0,58.0,53.5,48.0,89,72,41,30.06,29.98,6,2,10,0.00
2013-11-10,81.0,60.4,50.0,59.0,50.1,43.0,89,73,26,30.10,30.01,7,1,14,0.01
2013-11-11,77.0,64.7,54.0,61.0,53.8,50.0,89,69,52,30.11,30.01,5,1,9,0.12
2013-11-12,75.0,59.6,51.0,61.0,52.0,48.0,89,77,46,30.14,30.03,5,0,11,0.00
2013-11-13,84.0,72.2,54.0,53.0,49.6,44.0,88,51,26,30.03,29.85,6,3,13,0.00
2013-11-14,86.0,64.3,51.0,60.0,51.7,44.0,88,68,25,29.90,29.76,7,1,12,0.00
2013-11-15,69.0,63.5,61.0,59.0,57.9,57.0,88,82,70,29.75,29.67,7,4,14,0.00
2013-11-16,67.0,61.3,53.0,55.0,49.4,-99.9,88,69,60,29.93,29.83,7,2,16,0.00
2013-11-17,67.0,58.1,52.0,56.0,52.2,49.0,89,81,65,30.06,29.93,7,1,11,0.00
2013-11-18,69.0,62.6,52.0,58.0,55.4,49.0,89,78,63,30.14,30.03,7,3,13,0.00
2013-11-19,65.0,60.4,56.0,57.0,54.3,52.0,88,80,71,30.08,29.94,7,1,11,0.00
2013-11-20,65.0,59.9,54.0,58.0,55.0,51.0,89,84,74,29.96,29.88,5,1,11,0.09
2013-11-21,64.0,60.8,55.0,59.0,56.4,52.0,89,85,78,29.87,29.81,9,3,14,0.25
2013-11-22,64.0,56.6,52.0,52.0,47.1,42.0,92,72,50,29.94,29.82,7,1,15,0.00
2013-11-23,68.0,56.0,48.0,52.0,45.2,-99.9,88,72,45,30.07,29.94,7,1,13,0.51
2013-11-24,68.0,57.5,47.0,53.0,47.5,44.0,88,71,45,30.17,30.07,7,1,11,0.51
2013-11-25,72.0,55.2,43.0,55.0,46.0,40.0,89,74,43,30.22,30.13,7,1,13,0.00
2013-11-26,75.0,62.7,47.0,54.0,47.6,43.0,88,61,38,30.17,30.02,6,1,10,0.00
2013-11-27,73.0,58.4,48.0,51.0,46.8,44.0,88,69,39,30.03,29.86,7,1,12,0.00
2013-11-28,63.0,57.8,54.0,55.0,52.7,51.0,89,83,72,30.04,29.95,2,1,5,0.00
2013-11-29,65.0,57.8,54.0,58.0,53.5,50.0,89,85,71,30.16,30.04,2,0,5,0.26
2013-12-2,73.0,56.6,46.0,54.0,46.6,41.0,88,72,35,30.08,29.90,4,0,7,0.00
2013-12-3,66.0,58.6,48.0,56.0,52.0,45.0,89,79,66,29.90,29.74,6,2,15,0.00
2013-12-4,62.0,54.2,45.0,48.0,40.0,31.0,80,60,42,29.95,29.77,7,2,14,0.00
2013-12-5,61.0,50.8,41.0,43.0,40.2,37.0,86,69,47,30.06,29.93,6,1,12,0.00